createdAt,value
2023-05-10T00:01:09.044Z,3.92
2023-05-10T00:03:36.981Z,3.55
2023-05-10T00:06:04.689Z,4.30
2023-05-10T00:08:32.419Z,3.40
2023-05-10T00:11:00.011Z,4.47
2023-05-10T00:13:27.742Z,3.53
2023-05-10T00:15:55.413Z,3.60
2023-05-10T00:18:23.051Z,4.55
2023-05-10T00:20:50.819Z,4.28
2023-05-10T00:23:18.533Z,4.13
2023-05-10T00:25:46.254Z,4.03
2023-05-10T00:28:13.904Z,3.80
2023-05-10T00:30:41.625Z,4.05
2023-05-10T00:33:09.314Z,4.28
2023-05-10T00:35:37.061Z,4.70
2023-05-10T00:38:04.898Z,4.00
2023-05-10T00:40:32.617Z,4.45
2023-05-10T00:43:06.163Z,4.13
2023-05-10T00:45:34.420Z,4.35
2023-05-10T00:48:06.077Z,4.38
2023-05-10T00:50:34.623Z,4.25
2023-05-10T00:53:03.225Z,4.07
2023-05-10T00:55:31.938Z,4.53
2023-05-10T00:58:00.145Z,3.88
2023-05-10T01:00:27.868Z,3.90
2023-05-10T01:02:55.698Z,4.30
2023-05-10T01:05:23.877Z,4.57
2023-05-10T01:07:52.173Z,4.53
2023-05-10T01:10:20.410Z,4.57
2023-05-10T01:12:48.635Z,4.07
2023-05-10T01:15:18.916Z,5.00
2023-05-10T01:17:48.280Z,4.80
2023-05-10T01:20:19.041Z,4.70
2023-05-10T01:23:12.619Z,4.47
2023-05-10T01:26:16.648Z,5.45
2023-05-10T01:29:33.943Z,4.88
2023-05-10T01:32:44.553Z,5.70
2023-05-10T01:35:54.659Z,4.60
2023-05-10T01:38:41.331Z,4.72
2023-05-10T01:41:41.931Z,4.65
2023-05-10T01:44:35.756Z,4.47
2023-05-10T01:47:24.087Z,4.85
2023-05-10T01:49:56.251Z,5.55
2023-05-10T01:52:31.450Z,4.80
2023-05-10T01:55:10.390Z,5.15
2023-05-10T01:57:40.733Z,4.60
2023-05-10T02:00:10.710Z,4.72
2023-05-10T02:02:47.727Z,4.50
2023-05-10T02:05:18.143Z,5.13
2023-05-10T02:07:46.496Z,5.05
2023-05-10T02:10:15.515Z,4.63
2023-05-10T02:12:46.962Z,5.43
2023-05-10T02:15:22.341Z,4.85
2023-05-10T02:17:50.725Z,5.07
2023-05-10T02:20:20.186Z,5.00
2023-05-10T02:22:52.513Z,5.30
2023-05-10T02:25:22.331Z,4.78
2023-05-10T02:27:51.226Z,5.55
2023-05-10T02:30:20.156Z,4.55
2023-05-10T02:32:49.715Z,5.50
2023-05-10T02:35:17.695Z,5.25
2023-05-10T02:37:47.778Z,5.40
2023-05-10T02:40:18.602Z,5.28
2023-05-10T02:42:48.604Z,5.93
2023-05-10T02:45:22.824Z,5.68
2023-05-10T02:47:50.746Z,5.55
2023-05-10T02:50:18.996Z,5.90
2023-05-10T02:52:59.193Z,5.03
2023-05-10T02:55:33.284Z,5.70
2023-05-10T02:58:03.197Z,6.40
2023-05-10T03:00:31.880Z,7.38
2023-05-10T03:02:59.832Z,5.60
2023-05-10T03:05:28.069Z,5.82
2023-05-10T03:07:56.568Z,5.50
2023-05-10T03:10:30.127Z,6.32
2023-05-10T03:13:33.616Z,7.25
2023-05-10T03:16:18.085Z,6.30
2023-05-10T03:19:22.831Z,6.28
2023-05-10T03:21:53.570Z,5.85
2023-05-10T03:24:24.139Z,5.57
2023-05-10T03:26:56.622Z,5.95
2023-05-10T03:29:27.251Z,5.82
2023-05-10T03:31:55.049Z,5.47
2023-05-10T03:34:26.157Z,5.55
2023-05-10T03:36:54.013Z,6.20
2023-05-10T03:39:22.371Z,6.78
2023-05-10T03:41:54.812Z,5.18
2023-05-10T03:44:22.576Z,5.70
2023-05-10T03:46:53.046Z,5.80
2023-05-10T03:49:20.976Z,5.30
2023-05-10T03:51:49.087Z,6.07
2023-05-10T03:54:17.194Z,5.75
2023-05-10T03:56:44.833Z,5.88
2023-05-10T03:59:12.476Z,6.10
2023-05-10T04:01:40.455Z,5.10
2023-05-10T04:04:08.113Z,5.97
2023-05-10T04:06:36.028Z,5.47
2023-05-10T04:09:05.385Z,5.95
2023-05-10T04:11:33.205Z,5.25
2023-05-10T04:14:00.834Z,5.00
2023-05-10T04:16:28.525Z,5.57
2023-05-10T04:18:56.284Z,5.80
2023-05-10T04:21:23.899Z,6.03
2023-05-10T04:23:51.602Z,6.47
2023-05-10T04:26:19.408Z,5.63
2023-05-10T04:28:47.102Z,5.40
2023-05-10T04:31:14.736Z,5.28
2023-05-10T04:33:42.384Z,5.75
2023-05-10T04:36:10.299Z,5.35
2023-05-10T04:38:37.931Z,5.30
2023-05-10T04:41:10.476Z,5.43
2023-05-10T04:43:39.029Z,6.25
2023-05-10T04:46:08.015Z,6.50
2023-05-10T04:48:35.879Z,6.10
2023-05-10T04:51:04.947Z,4.93
2023-05-10T04:53:32.896Z,5.38
2023-05-10T04:56:00.523Z,5.82
2023-05-10T04:58:28.202Z,4.60
2023-05-10T05:00:55.797Z,4.90
2023-05-10T05:03:23.788Z,5.70
2023-05-10T05:05:51.447Z,5.25
2023-05-10T05:08:19.112Z,4.93
2023-05-10T05:10:46.744Z,4.78
2023-05-10T05:13:14.449Z,4.95
2023-05-10T05:15:42.064Z,4.60
2023-05-10T05:18:09.733Z,4.63
2023-05-10T05:20:37.381Z,4.45
2023-05-10T05:23:05.629Z,4.40
2023-05-10T05:25:36.895Z,4.30
2023-05-10T05:28:04.744Z,4.43
2023-05-10T05:30:32.555Z,4.65
2023-05-10T05:33:00.694Z,4.38
2023-05-10T05:35:28.397Z,3.67
2023-05-10T05:37:56.752Z,4.63
2023-05-10T05:40:24.434Z,4.15
2023-05-10T05:42:52.125Z,4.72
2023-05-10T05:45:19.980Z,4.28
2023-05-10T05:47:48.274Z,4.13
2023-05-10T05:50:16.192Z,3.75
2023-05-10T05:52:43.885Z,4.38
2023-05-10T05:55:11.473Z,3.75
2023-05-10T05:57:39.188Z,4.03
2023-05-10T06:00:07.703Z,3.90
2023-05-10T06:02:40.582Z,3.67
2023-05-10T06:05:09.162Z,3.88
2023-05-10T06:07:37.226Z,3.88
2023-05-10T06:10:05.689Z,3.80
2023-05-10T06:12:33.292Z,3.40
2023-05-10T06:15:01.057Z,3.42
2023-05-10T06:17:28.758Z,3.92
2023-05-10T06:19:57.148Z,3.30
2023-05-10T06:22:24.720Z,3.38
2023-05-10T06:24:52.415Z,4.45
2023-05-10T06:27:19.983Z,3.92
2023-05-10T06:29:48.233Z,3.28
2023-05-10T06:32:16.931Z,3.58
2023-05-10T06:34:45.544Z,4.00
2023-05-10T06:37:13.228Z,3.55
2023-05-10T06:39:40.834Z,3.65
2023-05-10T06:42:09.218Z,4.70
2023-05-10T06:44:39.967Z,3.85
2023-05-10T06:47:07.589Z,3.13
2023-05-10T06:49:35.170Z,3.55
2023-05-10T06:52:02.788Z,3.72
2023-05-10T06:54:30.488Z,3.70
2023-05-10T06:56:58.747Z,3.08
2023-05-10T06:59:26.586Z,2.97
2023-05-10T07:01:54.865Z,3.53
2023-05-10T07:04:22.534Z,2.83
2023-05-10T07:06:50.701Z,2.47
2023-05-10T07:09:18.288Z,3.42
2023-05-10T07:11:46.073Z,3.28
2023-05-10T07:14:13.649Z,2.92
2023-05-10T07:16:41.273Z,2.95
2023-05-10T07:19:08.956Z,2.53
2023-05-10T07:21:37.501Z,3.22
2023-05-10T07:24:05.279Z,2.83
2023-05-10T07:26:32.937Z,2.90
2023-05-10T07:29:00.579Z,2.85
2023-05-10T07:31:28.245Z,2.97
2023-05-10T07:33:55.840Z,2.70
2023-05-10T07:36:24.470Z,2.78
2023-05-10T07:38:52.165Z,2.13
2023-05-10T07:41:19.845Z,2.67
2023-05-10T07:43:47.547Z,2.42
2023-05-10T07:46:15.273Z,2.25
2023-05-10T07:48:42.908Z,2.60
2023-05-10T07:51:11.637Z,3.08
2023-05-10T07:53:39.468Z,2.35
2023-05-10T07:56:30.480Z,2.60
2023-05-10T07:59:02.579Z,2.72
2023-05-10T08:01:35.584Z,2.20
2023-05-10T08:04:03.365Z,2.42
2023-05-10T08:06:31.426Z,2.72
2023-05-10T08:09:02.147Z,2.97
2023-05-10T08:11:29.860Z,2.20
2023-05-10T08:13:57.436Z,2.92
2023-05-10T08:16:25.207Z,2.20
2023-05-10T08:18:53.048Z,2.20
2023-05-10T08:21:20.731Z,2.67
2023-05-10T08:23:48.513Z,2.60
2023-05-10T08:26:16.199Z,2.45
2023-05-10T08:28:43.849Z,2.65
2023-05-10T08:31:11.544Z,2.33
2023-05-10T08:33:39.137Z,2.42
2023-05-10T08:36:06.925Z,2.70
2023-05-10T08:38:34.632Z,2.65
2023-05-10T08:41:06.264Z,2.85
2023-05-10T08:43:36.841Z,2.67
2023-05-10T08:46:08.723Z,3.47
2023-05-10T08:48:38.063Z,2.80
2023-05-10T08:51:06.347Z,2.50
2023-05-10T08:53:38.335Z,2.22
2023-05-10T08:56:06.772Z,2.42
2023-05-10T08:58:34.408Z,3.10
2023-05-10T09:01:02.381Z,2.35
2023-05-10T09:03:30.891Z,2.33
2023-05-10T09:05:58.903Z,2.33
2023-05-10T09:08:27.255Z,2.85
2023-05-10T09:10:58.879Z,2.58
2023-05-10T09:13:27.042Z,2.20
2023-05-10T09:15:55.066Z,2.88
2023-05-10T09:18:22.764Z,2.80
2023-05-10T09:20:50.699Z,2.25
2023-05-10T09:23:18.312Z,2.90
2023-05-10T09:25:46.011Z,2.80
2023-05-10T09:28:13.739Z,2.60
2023-05-10T09:30:41.467Z,2.60
2023-05-10T09:33:09.187Z,2.30
2023-05-10T09:35:37.108Z,2.45
2023-05-10T09:38:06.464Z,2.33
2023-05-10T09:40:34.155Z,2.63
2023-05-10T09:43:05.350Z,2.53
2023-05-10T09:45:38.659Z,2.40
2023-05-10T09:48:07.622Z,2.58
2023-05-10T09:50:35.592Z,2.45
2023-05-10T09:53:05.549Z,2.25
2023-05-10T09:55:55.950Z,2.50
2023-05-10T10:01:37.910Z,2.95
2023-05-10T10:04:47.672Z,3.00
2023-05-10T10:07:47.333Z,2.70
2023-05-10T10:11:17.336Z,2.55
2023-05-10T10:14:19.058Z,2.72
2023-05-10T10:16:59.494Z,2.70
2023-05-10T10:19:38.501Z,2.20
2023-05-10T10:22:07.050Z,2.45
2023-05-10T10:24:35.068Z,2.75
2023-05-10T10:27:33.119Z,2.72
2023-05-10T10:30:14.069Z,2.40
2023-05-10T10:33:20.052Z,3.72
2023-05-10T10:35:56.398Z,2.90
2023-05-10T10:38:24.337Z,2.80
2023-05-10T10:41:11.752Z,2.80
2023-05-10T10:43:39.800Z,2.72
2023-05-10T10:46:18.725Z,3.05
2023-05-10T10:49:08.924Z,2.40
2023-05-10T10:51:40.052Z,3.20
2023-05-10T10:54:11.934Z,3.85
2023-05-10T10:56:39.639Z,3.15
2023-05-10T10:59:09.313Z,3.20
2023-05-10T11:01:37.104Z,2.78
2023-05-10T11:04:04.648Z,3.00
2023-05-10T11:06:37.141Z,3.22
2023-05-10T11:09:10.881Z,3.00
2023-05-10T11:11:56.309Z,2.80
2023-05-10T11:14:25.003Z,2.97
2023-05-10T11:16:53.023Z,3.70
2023-05-10T11:19:22.945Z,3.65
2023-05-10T11:22:05.735Z,3.10
2023-05-10T11:24:34.447Z,2.90
2023-05-10T11:27:02.304Z,2.97
2023-05-10T11:29:30.062Z,3.78
2023-05-10T11:32:00.610Z,3.00
2023-05-10T11:34:32.424Z,3.08
2023-05-10T11:37:00.821Z,2.90
2023-05-10T11:39:33.010Z,3.20
2023-05-10T11:42:01.304Z,2.88
2023-05-10T11:44:33.753Z,3.03
2023-05-10T11:47:04.558Z,3.00
2023-05-10T11:49:32.404Z,3.20
2023-05-10T11:52:09.800Z,2.95
2023-05-10T11:54:37.656Z,3.20
2023-05-10T11:57:07.161Z,2.88
2023-05-10T11:59:34.850Z,2.65
2023-05-10T12:02:02.926Z,3.20
2023-05-10T12:04:31.253Z,3.45
2023-05-10T12:06:59.353Z,3.08
2023-05-10T12:09:39.682Z,2.80
2023-05-10T12:12:11.769Z,3.45
2023-05-10T12:14:39.453Z,2.97
2023-05-10T12:17:07.090Z,3.20
2023-05-10T12:19:39.676Z,2.90
2023-05-10T12:22:07.371Z,3.00
2023-05-10T12:24:37.195Z,3.00
2023-05-10T12:27:09.852Z,3.10
2023-05-10T12:29:37.742Z,2.83
2023-05-10T12:32:05.450Z,3.42
2023-05-10T12:34:35.951Z,3.10
2023-05-10T12:37:04.413Z,2.92
2023-05-10T12:39:46.971Z,2.83
2023-05-10T12:42:14.755Z,2.63
2023-05-10T12:44:42.348Z,2.85
2023-05-10T12:47:10.086Z,3.03
2023-05-10T12:49:37.800Z,2.95
2023-05-10T12:52:05.612Z,3.10
2023-05-10T12:54:33.423Z,3.40
2023-05-10T12:57:01.189Z,3.45
2023-05-10T12:59:28.807Z,2.97
2023-05-10T13:01:56.496Z,2.80
2023-05-10T13:04:24.508Z,3.55
2023-05-10T13:06:52.385Z,3.08
2023-05-10T13:09:21.343Z,3.67
2023-05-10T13:11:50.071Z,3.33
2023-05-10T13:14:17.827Z,3.70
2023-05-10T13:16:45.719Z,4.13
2023-05-10T13:19:17.751Z,3.40
2023-05-10T13:21:45.679Z,3.67
2023-05-10T13:24:14.712Z,3.97
2023-05-10T13:26:42.527Z,3.78
2023-05-10T13:29:10.417Z,3.78
2023-05-10T13:31:38.100Z,3.67
2023-05-10T13:34:06.428Z,3.70
2023-05-10T13:36:34.199Z,3.78
2023-05-10T13:39:03.831Z,3.60
2023-05-10T13:41:31.516Z,4.00
2023-05-10T13:43:59.091Z,4.15
2023-05-10T13:46:26.752Z,4.18
2023-05-10T13:48:54.473Z,4.60
2023-05-10T13:51:22.262Z,4.32
2023-05-10T13:53:49.937Z,4.45
2023-05-10T13:56:17.915Z,4.72
2023-05-10T13:58:45.607Z,4.88
2023-05-10T14:01:13.427Z,4.80
2023-05-10T14:03:41.531Z,4.70
2023-05-10T14:06:09.672Z,4.43
2023-05-10T14:08:37.589Z,4.95
2023-05-10T14:11:05.528Z,5.28
2023-05-10T14:13:33.757Z,4.95
2023-05-10T14:16:01.727Z,4.78
2023-05-10T14:18:29.763Z,4.80
2023-05-10T14:20:57.813Z,4.75
2023-05-10T14:23:25.714Z,4.00
2023-05-10T14:25:54.255Z,4.65
2023-05-10T14:28:23.596Z,4.07
2023-05-10T14:30:51.491Z,4.50
2023-05-10T14:33:19.363Z,4.95
2023-05-10T14:35:47.689Z,5.22
2023-05-10T14:38:18.091Z,5.22
2023-05-10T14:40:46.006Z,4.97
2023-05-10T14:43:13.571Z,4.55
2023-05-10T14:45:42.278Z,5.05
2023-05-10T14:48:13.206Z,4.60
2023-05-10T14:50:40.956Z,4.63
2023-05-10T14:53:08.581Z,4.60
2023-05-10T14:55:39.247Z,4.75
2023-05-10T14:58:06.938Z,4.82
2023-05-10T15:00:36.763Z,4.72
2023-05-10T15:03:05.269Z,4.80
2023-05-10T15:05:33.702Z,4.30
2023-05-10T15:08:01.674Z,4.32
2023-05-10T15:10:29.473Z,4.15
2023-05-10T15:12:57.148Z,4.32
2023-05-10T15:15:27.382Z,3.10
2023-05-10T15:17:58.151Z,3.70
2023-05-10T15:20:26.261Z,3.70
2023-05-10T15:22:53.923Z,4.18
2023-05-10T15:25:21.631Z,4.85
2023-05-10T15:27:49.244Z,3.90
2023-05-10T15:30:16.961Z,3.35
2023-05-10T15:32:44.692Z,4.20
2023-05-10T15:35:12.616Z,3.60
2023-05-10T15:37:40.536Z,3.88
2023-05-10T15:40:08.909Z,3.70
2023-05-10T15:42:36.574Z,4.10
2023-05-10T15:45:05.204Z,3.50
2023-05-10T15:47:33.034Z,2.28
2023-05-10T15:50:01.173Z,2.85
2023-05-10T15:52:29.652Z,3.00
2023-05-10T15:54:57.361Z,3.08
2023-05-10T15:57:27.729Z,2.92
2023-05-10T15:59:56.299Z,2.75
2023-05-10T16:02:24.176Z,3.20
2023-05-10T16:04:52.100Z,2.80
2023-05-10T16:07:19.808Z,2.78
2023-05-10T16:09:49.410Z,3.17
2023-05-10T16:12:17.570Z,2.97
2023-05-10T16:14:45.232Z,2.72
2023-05-10T16:17:13.115Z,2.78
2023-05-10T16:19:41.286Z,3.40
2023-05-10T16:22:09.065Z,3.10
2023-05-10T16:24:36.935Z,3.15
2023-05-10T16:27:04.577Z,3.17
2023-05-10T16:29:32.185Z,3.58
2023-05-10T16:32:02.854Z,3.28
2023-05-10T16:34:31.129Z,3.65
2023-05-10T16:37:00.908Z,3.80
2023-05-10T16:39:29.472Z,3.63
2023-05-10T16:42:00.458Z,4.00
2023-05-10T16:44:28.307Z,4.35
2023-05-10T16:46:56.091Z,4.03
2023-05-10T16:49:26.197Z,3.97
2023-05-10T16:51:54.153Z,4.10
2023-05-10T16:54:22.112Z,4.15
2023-05-10T16:56:49.795Z,4.57
2023-05-10T16:59:17.480Z,4.35
2023-05-10T17:01:46.083Z,4.20
2023-05-10T17:04:14.315Z,4.38
2023-05-10T17:06:42.213Z,3.53
2023-05-10T17:09:10.026Z,4.20
2023-05-10T17:11:37.864Z,3.65
2023-05-10T17:14:05.571Z,3.75
2023-05-10T17:16:33.328Z,2.90
2023-05-10T17:19:01.398Z,3.05
2023-05-10T17:21:29.152Z,3.20
2023-05-10T17:23:58.197Z,3.28
2023-05-10T17:26:27.599Z,3.30
2023-05-10T17:28:55.329Z,3.63
2023-05-10T17:31:23.201Z,3.50
2023-05-10T17:33:50.851Z,3.72
2023-05-10T17:36:21.167Z,4.18
2023-05-10T17:38:48.893Z,4.45
2023-05-10T17:41:16.999Z,4.40
2023-05-10T17:43:44.724Z,4.68
2023-05-10T17:46:15.227Z,4.75
2023-05-10T17:48:43.431Z,5.10
2023-05-10T17:51:14.270Z,5.38
2023-05-10T17:53:42.188Z,4.68
2023-05-10T17:56:10.528Z,5.40
2023-05-10T17:58:38.418Z,4.88
2023-05-10T18:01:08.002Z,5.43
2023-05-10T18:03:35.981Z,5.68
2023-05-10T18:06:04.420Z,6.55
2023-05-10T18:08:32.997Z,7.82
2023-05-10T18:11:00.528Z,6.75
2023-05-10T18:13:29.559Z,6.78
2023-05-10T18:15:57.295Z,5.57
2023-05-10T18:18:25.519Z,6.05
2023-05-10T18:20:56.683Z,5.68
2023-05-10T18:23:33.415Z,5.22
2023-05-10T18:26:02.609Z,5.40
2023-05-10T18:28:30.438Z,4.53
2023-05-10T18:30:58.242Z,5.68
2023-05-10T18:33:26.358Z,5.50
2023-05-10T18:35:57.104Z,5.95
2023-05-10T18:38:27.389Z,6.03
2023-05-10T18:40:57.592Z,6.13
2023-05-10T18:43:25.296Z,5.88
2023-05-10T18:45:53.191Z,6.13
2023-05-10T18:48:28.052Z,4.93
2023-05-10T18:50:56.014Z,5.25
2023-05-10T18:53:32.563Z,4.68
2023-05-10T18:56:00.338Z,5.18
2023-05-10T18:58:29.415Z,5.07
2023-05-10T19:00:58.749Z,5.03
2023-05-10T19:03:30.100Z,5.03
2023-05-10T19:05:58.078Z,4.75
2023-05-10T19:08:40.663Z,5.15
2023-05-10T19:12:00.254Z,4.85
2023-05-10T19:14:36.930Z,5.15
2023-05-10T19:17:05.257Z,4.93
2023-05-10T19:19:33.149Z,5.78
2023-05-10T19:22:03.668Z,5.68
2023-05-10T19:24:31.447Z,5.93
2023-05-10T19:27:00.025Z,5.88
2023-05-10T19:29:27.816Z,4.90
2023-05-10T19:31:55.512Z,5.65
2023-05-10T19:34:23.198Z,5.22
2023-05-10T19:36:52.258Z,5.43
2023-05-10T19:39:22.663Z,5.72
2023-05-10T19:41:50.577Z,5.50
2023-05-10T19:44:18.128Z,5.20
2023-05-10T19:46:48.348Z,6.10
2023-05-10T19:49:17.233Z,5.80
2023-05-10T19:51:48.073Z,6.75
2023-05-10T19:54:15.774Z,5.50
2023-05-10T19:56:43.429Z,5.88
2023-05-10T19:59:11.035Z,6.00
2023-05-10T20:01:38.968Z,4.50
2023-05-10T20:04:07.005Z,4.82
2023-05-10T20:06:34.784Z,5.20
2023-05-10T20:09:02.509Z,4.35
2023-05-10T20:11:30.307Z,4.65
2023-05-10T20:13:58.034Z,4.70
2023-05-10T20:16:26.869Z,4.38
2023-05-10T20:18:54.780Z,5.00
2023-05-10T20:21:23.799Z,5.15
2023-05-10T20:23:51.461Z,5.15
2023-05-10T20:26:19.133Z,5.00
2023-05-10T20:28:46.956Z,4.88
2023-05-10T20:31:14.596Z,4.90
2023-05-10T20:33:42.281Z,5.20
2023-05-10T20:36:10.171Z,5.03
2023-05-10T20:38:37.916Z,5.13
2023-05-10T20:41:05.606Z,5.28
2023-05-10T20:43:33.565Z,5.13
2023-05-10T20:46:05.322Z,5.85
2023-05-10T20:48:33.296Z,5.75
2023-05-10T20:51:02.117Z,5.30
2023-05-10T20:53:29.933Z,6.30
2023-05-10T20:55:57.640Z,5.57
2023-05-10T20:58:25.357Z,5.50
2023-05-10T21:00:52.929Z,5.35
2023-05-10T21:03:20.668Z,6.13
2023-05-10T21:05:48.287Z,5.80
2023-05-10T21:08:15.922Z,6.25
2023-05-10T21:10:43.601Z,5.80
2023-05-10T21:13:11.324Z,5.97
2023-05-10T21:15:39.257Z,5.30
2023-05-10T21:18:06.928Z,5.85
2023-05-10T21:20:34.503Z,5.72
2023-05-10T21:23:02.311Z,5.45
2023-05-10T21:25:29.893Z,4.97
2023-05-10T21:27:57.778Z,5.00
2023-05-10T21:30:25.712Z,5.43
2023-05-10T21:32:55.149Z,5.15
2023-05-10T21:35:22.796Z,5.22
2023-05-10T21:37:50.353Z,4.55
2023-05-10T21:40:18.604Z,5.25
2023-05-10T21:42:49.785Z,5.45
2023-05-10T21:45:19.105Z,5.50
2023-05-10T21:47:46.766Z,5.95
2023-05-10T21:50:14.537Z,5.13
2023-05-10T21:52:42.302Z,5.40
2023-05-10T21:55:10.395Z,5.28
2023-05-10T21:57:38.072Z,5.20
2023-05-10T22:00:06.952Z,5.13
2023-05-10T22:02:34.603Z,5.25
2023-05-10T22:05:03.685Z,5.05
2023-05-10T22:07:32.459Z,5.13
2023-05-10T22:09:59.990Z,4.80
2023-05-10T22:12:27.593Z,5.10
2023-05-10T22:15:09.482Z,5.28
2023-05-10T22:17:40.039Z,5.30
2023-05-10T22:20:08.995Z,5.38
2023-05-10T22:22:39.739Z,6.10
2023-05-10T22:25:08.240Z,5.63
2023-05-10T22:27:36.563Z,5.28
2023-05-10T22:30:05.095Z,6.07
2023-05-10T22:32:34.205Z,6.07
2023-05-10T22:35:02.404Z,5.97
2023-05-10T22:37:30.187Z,5.53
2023-05-10T22:39:57.762Z,6.47
2023-05-10T22:42:25.349Z,6.63
2023-05-10T22:44:53.022Z,5.78
2023-05-10T22:47:20.534Z,5.55
2023-05-10T22:49:48.361Z,5.88
2023-05-10T22:52:15.869Z,5.47
2023-05-10T22:54:44.204Z,5.32
2023-05-10T22:57:12.166Z,5.10
2023-05-10T22:59:39.797Z,5.72
2023-05-10T23:02:07.355Z,5.78
2023-05-10T23:04:35.092Z,5.00
2023-05-10T23:07:02.671Z,5.40
2023-05-10T23:09:30.184Z,5.50
2023-05-10T23:11:57.740Z,4.60
2023-05-10T23:14:25.280Z,5.38
2023-05-10T23:16:52.745Z,5.68
2023-05-10T23:19:20.238Z,5.35
2023-05-10T23:21:47.770Z,5.53
2023-05-10T23:24:15.370Z,5.53
2023-05-10T23:26:45.184Z,5.90
2023-05-10T23:29:12.778Z,5.80
2023-05-10T23:31:45.239Z,5.75
2023-05-10T23:34:13.192Z,5.63
2023-05-10T23:36:43.487Z,5.28
2023-05-10T23:39:11.995Z,5.60
2023-05-10T23:41:42.586Z,5.97
2023-05-10T23:44:10.148Z,5.63
2023-05-10T23:46:37.653Z,6.00
2023-05-10T23:49:05.212Z,6.10
2023-05-10T23:51:32.907Z,5.93
2023-05-10T23:54:00.546Z,6.88
2023-05-10T23:56:28.090Z,6.43
2023-05-10T23:58:55.712Z,6.30
